AirNav   Everest Fuels
 
 588 users online  

9I0 Havana Regional Airport
Havana, Illinois, USA

GOING TO HAVANA?


FAA INFORMATION EFFECTIVE 23 MAY 2019

Location

FAA Identifier: 9I0
Lat/Long: 40-13-21.6950N / 090-01-22.0150W
40-13.361583N / 090-01.366917W
40.2226931 / -90.0227819
(estimated)
Elevation: 499 ft. / 152.1 m (surveyed)
Variation: 01E (1985)
From city: 5 miles SE of HAVANA, IL
Time zone: UTC -5 (UTC -6 during Standard Time)
Zip code: 62644

Airport Operations

Airport use: Open to the public
Activation date: 03/1985
Control tower: no
ARTCC: KANSAS CITY CENTER
FSS: KANKAKEE FLIGHT SERVICE STATION
NOTAMs facility: IKK (NOTAM-D service available)
Attendance: IREG
Wind indicator: lighted
Segmented circle: no
Beacon: white-green (lighted land airport)
Operates sunset to sunrise.

Airport Communications

CTAF: 122.9

Nearby radio navigation aids

VOR radial/distance  VOR name  Freq  Var
SPIr326/27.9SPINNER VORTAC112.7001W
PIAr197/29.4PEORIA VORTAC115.2004E

 
NDB name  Hdg/Dist  Freq  Var  ID
MACOMB125/30.325101EJZY .--- --.. -.--
ABRAHAM277/31.632900EAAA .- .- .-

Airport Services

Fuel available: 100LL
SELF SVC FUEL AVBL 24 HRS.
Parking: tiedowns

Runway Information

Runway 9/27

Dimensions: 2235 x 100 ft. / 681 x 30 m
Surface: turf, in good condition
Runway edge lights: medium intensity
RUNWAY 9  RUNWAY 27
Latitude: 40-13.360833N40-13.362333N
Longitude: 090-01.607000W090-01.126833W
Elevation: 485.5 ft.488.2 ft.
Traffic pattern: leftleft
Touchdown point: yes, no lightsyes, no lights

Airport Ownership and Management from official FAA records

Ownership: Publicly-owned
Owner: HAVANA REGIONAL PORT DISTRICT
17787 SHERWOOD FOREST RD
HAVANA, IL 62644
Phone (217) 725-0628
Manager: BOB MARTIN
18206 QUIVER BEACH RD
HAVANA, IL 62644-6895
Phone 309-543-9006
EMAIL ADDRESS: FLYBYEWIRE@GMAIL.COM (ALL LOWER CASE)

Airport Operational Statistics

Aircraft based on the field: 15
Single engine airplanes: 13
Ultralights: 2
    
Aircraft operations: avg 27/week *
71% local general aviation
29% transient general aviation
* for 12-month period ending 30 April 2017

Additional Remarks

9 FT CROPS E OF RY 27 THLD - SEASONAL.

Instrument Procedures

There are no published instrument procedures at 9I0.

Some nearby airports with instrument procedures:

KCTK - Ingersoll Airport (21 nm N)
C15 - Pekin Municipal Airport (22 nm NE)
KSPI - Abraham Lincoln Capital Airport (28 nm SE)
KIJX - Jacksonville Municipal Airport (29 nm S)
KPIA - General Downing - Peoria International Airport (30 nm NE)
 
Loc | Ops | Rwys | IFR | FBO | Links
Com | Nav | Svcs | Stats | Notes
Area around 9I0 (Havana Regional Airport)
 
Road maps at: MapQuest Bing Google
 
Aerial photo
WARNING: Photo may not be current or correct
Aerial photo of 9I0 (Havana Regional Airport)
Taken mid June 2008

Do you have a better or more recent aerial photo of Havana Regional Airport that you would like to share? If so, please send us your photo.

 
Sectional chart

 
Airport distance calculator
Flying to Havana Regional Airport? Find the distance to fly.

From to 9I0

Sunrise and sunset
Times for 22-May-2019
 Local
(UTC-5)
 Zulu
(UTC)
Morning civil twilight05:0810:08
Sunrise05:3910:39
Sunset20:1401:14
Evening civil twilight20:4601:46

Current date and time
Zulu (UTC)  23-May-2019 04:11:29
Local (UTC-5)  22-May-2019 23:11:29
 
METAR
KSPI 
27nm SE 
230352Z AUTO 18019G30KT 10SM CLR 24/21 A2988 RMK AO2 PK WND 19031/0321 LTG DSNT N AND NW SLP115 T02390206
KIJX 
29nm S 
230355Z AUTO 16013G18KT 10SM SCT085 24/20 A2987 RMK AO2 LTG DSNT W THRU NE T02380200
KPIA 
31nm NE 
230404Z 21010G18KT 10SM -TSRA FEW023 BKN090 OVC110 21/19 A2987 RMK AO2 LTG DSNT ALQDS PRESFR P0001 T02110194
KAAA 
32nm E 
230355Z AUTO 17008KT 10SM CLR 24/21 A2990 RMK AO2 LTG DSNT W THRU N T02350205
KMQB 
34nm NW 
230355Z AUTO 13005KT 7SM VCTS SCT045 BKN060 BKN080 18/18 A2988 RMK AO2 LTG DSNT W THRU E P0004 T01830183
KI63 
39nm W 
230355Z AUTO 31003KT 10SM -TSRA BKN032 OVC040 21/19 A2987 RMK AO2 LTG DSNT ALQS P0001 T02080188
KGBG 
47nm NW 
230355Z AUTO 10005KT 10SM VCTS SCT043 SCT065 BKN110 19/19 A2988 RMK AO2 LTG DSNT ALQS P0002 T01920190
KPPQ 
50nm SW 
230355Z AUTO 16009KT 10SM TS SCT065 OVC090 25/21 A2986 RMK AO2 LTG DSNT ALQS T02480211
TAF
KSPI 
27nm SE 
221729Z 2218/2318 17014G24KT P6SM FEW250 FM230300 18010KT P6SM VCSH OVC100 FM230500 20010G21KT P6SM VCTS OVC060CB WS020/22040KT FM230700 24006KT 4SM TSRA BR OVC030CB FM231000 23006KT P6SM VCSH OVC030 FM231500 28006KT P6SM SCT100
KPIA 
31nm NE 
221729Z 2218/2318 19014G24KT P6SM SKC FM230100 18008KT P6SM VCSH OVC100 FM230300 22007KT P6SM VCTS OVC030CB WS020/24040KT FM230500 24006KT 4SM TSRA BR OVC030CB FM230800 27006KT P6SM VCSH OVC030 FM231200 VRB04KT P6SM SCT100
NOTAMs
Click for the latest NOTAMs
NOTAMs are issued by the DoD/FAA and will open in a separate window not controlled by AirNav.

 

 
 

FBO, Fuel Providers, and Aircraft Ground Support

  
 Business Name 
 
 Contact 
 
 Services / Description 
 
Fuel Prices
 
Comments
  
Havana Regional Airport 309-696-4836
no information available

If you are affiliated with Havana Regional Airport and would like to show here your services, contact info, web link, logo, and more, click here
100LL
SS $4.89 
 Updated 21-Aug-2018
 
   1 read write
SS=Self service
Update Fuel Prices
 

Would you like to see your business listed on this page?

 If your business provides an interesting product or service to pilots, flight crews, aircraft, or users of the Havana Regional Airport, you should consider listing it here.  To start the listing process, click on the button below
 
Add a business
 

Other Pages about Havana Regional Airport

www.havanaregional.com
 
Update a link
 
Copyright © AirNav, LLC. All rights reserved. Privacy Policy  Contact